createdAt,value
2019-04-05T00:00:25.357Z,43.13
2019-04-05T00:02:53.809Z,42.43
2019-04-05T00:05:22.290Z,43.20
2019-04-05T00:07:50.744Z,44.33
2019-04-05T00:10:19.269Z,42.80
2019-04-05T00:12:47.901Z,42.90
2019-04-05T00:15:16.404Z,46.97
2019-04-05T00:17:44.990Z,42.67
2019-04-05T00:20:15.062Z,45.07
2019-04-05T00:22:43.553Z,42.40
2019-04-05T00:25:12.202Z,49.37
2019-04-05T00:27:40.648Z,44.00
2019-04-05T00:30:10.284Z,46.47
2019-04-05T00:32:41.116Z,52.47
2019-04-05T00:35:09.936Z,47.53
2019-04-05T00:37:38.471Z,47.90
2019-04-05T00:40:10.134Z,46.93
2019-04-05T00:42:38.634Z,51.53
2019-04-05T00:45:08.636Z,49.93
2019-04-05T00:47:37.158Z,49.77
2019-04-05T00:50:07.550Z,49.33
2019-04-05T00:52:36.134Z,49.83
2019-04-05T00:55:06.951Z,49.20
2019-04-05T00:57:35.651Z,51.57
2019-04-05T01:00:05.569Z,46.97
2019-04-05T01:02:34.188Z,46.83
2019-04-05T01:05:02.744Z,44.73
2019-04-05T01:07:32.035Z,53.83
2019-04-05T01:10:00.576Z,49.43
2019-04-05T01:12:29.031Z,49.77
2019-04-05T01:14:57.635Z,50.13
2019-04-05T01:17:26.443Z,49.27
2019-04-05T01:19:58.002Z,48.17
2019-04-05T01:22:28.469Z,53.47
2019-04-05T01:24:58.260Z,50.00
2019-04-05T01:27:29.215Z,48.93
2019-04-05T01:29:57.753Z,50.63
2019-04-05T01:32:26.452Z,54.47
2019-04-05T01:34:55.072Z,51.20
2019-04-05T01:37:23.706Z,50.10
2019-04-05T01:39:52.194Z,46.80
2019-04-05T01:42:20.792Z,50.50
2019-04-05T01:44:51.868Z,50.70
2019-04-05T01:47:19.947Z,52.83
2019-04-05T01:49:48.385Z,54.60
2019-04-05T01:52:17.011Z,55.07
2019-04-05T01:54:45.496Z,53.13
2019-04-05T01:57:13.936Z,49.37
2019-04-05T01:59:42.416Z,55.23
2019-04-05T02:02:10.968Z,53.37
2019-04-05T02:04:39.587Z,50.10
2019-04-05T02:07:08.484Z,54.37
2019-04-05T02:09:37.763Z,51.73
2019-04-05T02:12:06.847Z,53.80
2019-04-05T02:14:35.745Z,48.10
2019-04-05T02:17:04.631Z,49.60
2019-04-05T02:19:33.533Z,50.73
2019-04-05T02:22:02.463Z,50.57
2019-04-05T02:24:31.324Z,48.03
2019-04-05T02:27:00.231Z,50.07
2019-04-05T02:29:29.098Z,45.17
2019-04-05T02:31:57.688Z,43.77
2019-04-05T02:34:26.157Z,43.23
2019-04-05T02:36:54.772Z,44.33
2019-04-05T02:39:23.256Z,44.00
2019-04-05T02:41:53.642Z,42.67
2019-04-05T02:44:22.956Z,50.03
2019-04-05T02:46:54.286Z,44.43
2019-04-05T02:49:25.632Z,42.03
2019-04-05T02:51:55.005Z,44.10
2019-04-05T02:54:24.588Z,45.93
2019-04-05T02:56:53.222Z,42.37
2019-04-05T02:59:22.639Z,44.53
2019-04-05T03:01:51.256Z,43.47
2019-04-05T03:04:19.722Z,42.60
2019-04-05T03:06:49.630Z,40.47
2019-04-05T03:09:18.998Z,40.53
2019-04-05T03:11:48.971Z,41.10
2019-04-05T03:14:18.390Z,44.53
2019-04-05T03:16:50.297Z,41.10
2019-04-05T03:19:21.470Z,38.73
2019-04-05T03:21:53.009Z,40.93
2019-04-05T03:24:24.744Z,35.87
2019-04-05T03:26:56.290Z,36.60
2019-04-05T03:29:25.149Z,34.93
2019-04-05T03:31:53.884Z,36.00
2019-04-05T03:34:23.052Z,36.63
2019-04-05T03:36:52.399Z,38.27
2019-04-05T03:39:22.240Z,34.83
2019-04-05T03:41:51.034Z,35.43
2019-04-05T03:44:23.031Z,36.70
2019-04-05T03:46:56.862Z,33.30
2019-04-05T03:49:21.492Z,31.77
2019-04-05T03:51:50.185Z,33.63
2019-04-05T03:54:18.740Z,31.50
2019-04-05T03:56:47.485Z,33.77
2019-04-05T03:59:16.156Z,31.07
2019-04-05T04:01:45.175Z,28.97
2019-04-05T04:04:13.987Z,32.83
2019-04-05T04:06:42.512Z,33.50
2019-04-05T04:09:11.678Z,33.30
2019-04-05T04:11:40.285Z,32.67
2019-04-05T04:14:09.560Z,32.83
2019-04-05T04:16:38.689Z,31.23
2019-04-05T04:19:07.480Z,34.23
2019-04-05T04:22:03.212Z,31.77
2019-04-05T04:24:32.572Z,29.10
2019-04-05T04:27:01.264Z,30.67
2019-04-05T04:29:30.012Z,32.33
2019-04-05T04:31:58.993Z,33.00
2019-04-05T04:34:28.326Z,30.77
2019-04-05T04:36:56.968Z,30.47
2019-04-05T04:39:25.738Z,28.70
2019-04-05T04:41:54.471Z,31.07
2019-04-05T04:44:23.374Z,32.43
2019-04-05T04:46:51.872Z,31.90
2019-04-05T04:49:20.691Z,35.07
2019-04-05T04:51:49.511Z,31.70
2019-04-05T04:54:18.416Z,32.53
2019-04-05T04:56:47.258Z,29.73
2019-04-05T04:59:15.859Z,32.80
2019-04-05T05:01:44.834Z,34.38
2019-04-05T05:04:13.791Z,31.60
2019-04-05T05:06:42.978Z,30.53
2019-04-05T05:09:11.943Z,33.73
2019-04-05T05:11:40.535Z,31.53
2019-04-05T05:14:09.265Z,33.03
2019-04-05T05:16:37.885Z,30.63
2019-04-05T05:19:06.785Z,27.90
2019-04-05T05:21:35.815Z,33.93
2019-04-05T05:24:04.818Z,36.37
2019-04-05T05:26:33.772Z,32.37
2019-04-05T05:29:02.370Z,29.13
2019-04-05T05:31:31.057Z,28.03
2019-04-05T05:33:59.608Z,32.57
2019-04-05T05:36:28.272Z,32.43
2019-04-05T05:38:57.092Z,31.87
2019-04-05T05:41:25.707Z,30.97
2019-04-05T05:43:54.250Z,31.93
2019-04-05T05:46:22.821Z,33.90
2019-04-05T05:48:51.415Z,33.50
2019-04-05T05:51:20.116Z,30.77
2019-04-05T05:53:48.876Z,30.53
2019-04-05T05:56:17.348Z,31.83
2019-04-05T05:58:45.811Z,32.27
2019-04-05T06:01:14.316Z,30.17
2019-04-05T06:03:42.902Z,30.13
2019-04-05T06:06:11.407Z,29.60
2019-04-05T06:08:39.880Z,30.53
2019-04-05T06:11:08.562Z,32.10
2019-04-05T06:13:37.145Z,31.20
2019-04-05T06:16:05.683Z,28.30
2019-04-05T06:18:34.154Z,28.43
2019-04-05T06:21:04.232Z,25.00
2019-04-05T06:23:33.959Z,32.30
2019-04-05T06:26:02.917Z,28.03
2019-04-05T06:28:31.439Z,29.43
2019-04-05T06:31:01.520Z,31.23
2019-04-05T06:33:32.014Z,25.37
2019-04-05T06:36:00.733Z,26.20
2019-04-05T06:38:29.183Z,26.90
2019-04-05T06:40:57.821Z,25.30
2019-04-05T06:43:26.299Z,26.97
2019-04-05T06:45:54.839Z,24.40
2019-04-05T06:48:23.470Z,26.10
2019-04-05T06:50:52.002Z,24.10
2019-04-05T06:53:20.455Z,25.00
2019-04-05T06:55:49.000Z,24.17
2019-04-05T06:58:20.533Z,24.03
2019-04-05T07:00:56.778Z,24.83
2019-04-05T07:03:17.945Z,20.87
2019-04-05T07:05:46.427Z,22.03
2019-04-05T07:08:18.070Z,20.87
2019-04-05T07:10:45.398Z,20.97
2019-04-05T07:13:14.026Z,21.43
2019-04-05T07:15:42.635Z,20.60
2019-04-05T07:18:11.105Z,18.33
2019-04-05T07:20:39.563Z,20.20
2019-04-05T07:23:08.201Z,19.57
2019-04-05T07:25:36.660Z,18.23
2019-04-05T07:28:05.376Z,18.37
2019-04-05T07:30:33.936Z,16.63
2019-04-05T07:33:02.478Z,18.87
2019-04-05T07:35:33.638Z,17.60
2019-04-05T07:38:01.791Z,18.33
2019-04-05T07:40:30.259Z,18.40
2019-04-05T07:42:58.774Z,19.67
2019-04-05T07:45:27.315Z,18.27
2019-04-05T07:47:55.814Z,20.10
2019-04-05T07:50:24.416Z,19.40
2019-04-05T07:52:52.901Z,18.57
2019-04-05T07:55:21.378Z,16.93
2019-04-05T07:57:49.908Z,18.70
2019-04-05T08:00:42.772Z,19.00
2019-04-05T08:03:11.881Z,16.73
2019-04-05T08:05:40.587Z,19.80
2019-04-05T08:08:12.235Z,18.67
2019-04-05T08:10:41.627Z,18.23
2019-04-05T08:13:11.695Z,21.67
2019-04-05T08:15:40.400Z,16.67
2019-04-05T08:18:08.873Z,20.23
2019-04-05T08:20:37.327Z,18.30
2019-04-05T08:23:05.796Z,17.20
2019-04-05T08:25:34.260Z,14.37
2019-04-05T08:28:02.866Z,13.83
2019-04-05T08:30:31.377Z,13.77
2019-04-05T08:32:59.985Z,9.93
2019-04-05T08:35:28.516Z,10.40
2019-04-05T08:37:56.993Z,10.13
2019-04-05T08:40:26.414Z,12.50
2019-04-05T08:42:54.954Z,8.50
2019-04-05T08:45:23.546Z,10.00
2019-04-05T08:47:52.047Z,9.90
2019-04-05T08:50:20.581Z,10.50
2019-04-05T08:52:49.104Z,10.33
2019-04-05T08:55:17.559Z,9.27
2019-04-05T08:57:48.094Z,10.07
2019-04-05T09:00:16.675Z,9.10
2019-04-05T09:02:45.244Z,9.97
2019-04-05T09:05:13.976Z,8.50
2019-04-05T09:07:42.418Z,6.57
2019-04-05T09:10:11.124Z,7.27
2019-04-05T09:12:39.689Z,8.27
2019-04-05T09:15:08.211Z,6.63
2019-04-05T09:17:36.663Z,6.03
2019-04-05T09:20:05.749Z,5.70
2019-04-05T09:22:34.245Z,6.37
2019-04-05T09:25:03.725Z,6.03
2019-04-05T09:27:32.189Z,9.20
2019-04-05T09:30:01.112Z,5.93
2019-04-05T09:32:29.571Z,6.07
2019-04-05T09:34:58.063Z,6.70
2019-04-05T09:37:26.586Z,6.50
2019-04-05T09:39:56.368Z,6.63
2019-04-05T09:42:24.825Z,6.57
2019-04-05T09:44:53.304Z,6.23
2019-04-05T09:47:21.748Z,5.50
2019-04-05T09:49:50.230Z,5.83
2019-04-05T09:52:18.687Z,6.87
2019-04-05T09:54:47.139Z,5.87
2019-04-05T09:57:15.685Z,8.03
2019-04-05T09:59:44.143Z,7.20
2019-04-05T10:02:12.664Z,5.90
2019-04-05T10:04:41.164Z,5.80
2019-04-05T10:07:09.697Z,5.70
2019-04-05T10:09:39.069Z,7.63
2019-04-05T10:12:07.618Z,7.70
2019-04-05T10:14:36.914Z,6.53
2019-04-05T10:17:05.835Z,6.63
2019-04-05T10:19:34.313Z,6.03
2019-04-05T10:22:02.837Z,6.93
2019-04-05T10:24:33.093Z,7.00
2019-04-05T10:27:01.508Z,6.87
2019-04-05T10:29:29.967Z,7.30
2019-04-05T10:31:58.417Z,7.23
2019-04-05T10:34:26.977Z,7.13
2019-04-05T10:36:55.435Z,7.23
2019-04-05T10:39:23.899Z,7.23
2019-04-05T10:42:02.749Z,7.33
2019-04-05T10:44:22.571Z,8.27
2019-04-05T10:46:51.040Z,9.07
2019-04-05T10:49:19.517Z,7.50
2019-04-05T10:51:48.056Z,7.30
2019-04-05T10:54:16.612Z,7.80
2019-04-05T10:56:45.061Z,7.77
2019-04-05T10:59:13.594Z,8.17
2019-04-05T11:01:42.070Z,7.83
2019-04-05T11:04:10.598Z,9.00
2019-04-05T11:06:39.137Z,9.23
2019-04-05T11:09:08.256Z,8.47
2019-04-05T11:11:37.104Z,8.83
2019-04-05T11:14:13.752Z,7.73
2019-04-05T11:16:35.882Z,8.13
2019-04-05T11:19:04.434Z,9.70
2019-04-05T11:21:33.116Z,9.13
2019-04-05T11:24:01.564Z,7.97
2019-04-05T11:26:30.044Z,8.70
2019-04-05T11:28:58.537Z,9.93
2019-04-05T11:31:27.088Z,7.70
2019-04-05T11:33:55.630Z,8.40
2019-04-05T11:36:25.166Z,8.10
2019-04-05T11:38:54.436Z,7.97
2019-04-05T11:41:24.731Z,9.33
2019-04-05T11:43:54.319Z,11.37
2019-04-05T11:46:22.863Z,9.73
2019-04-05T11:48:52.052Z,9.67
2019-04-05T11:51:20.544Z,9.07
2019-04-05T11:53:49.098Z,9.30
2019-04-05T11:56:20.095Z,8.93
2019-04-05T11:58:49.186Z,9.20
2019-04-05T12:01:23.252Z,10.40
2019-04-05T12:03:50.550Z,10.00
2019-04-05T12:06:19.035Z,9.83
2019-04-05T12:08:47.589Z,9.77
2019-04-05T12:11:16.193Z,9.97
2019-04-05T12:13:47.631Z,9.83
2019-04-05T12:16:16.127Z,11.37
2019-04-05T12:18:44.599Z,10.07
2019-04-05T12:21:13.096Z,11.33
2019-04-05T12:23:41.918Z,12.30
2019-04-05T12:26:10.399Z,10.43
2019-04-05T12:28:39.023Z,10.23
2019-04-05T12:31:07.578Z,10.37
2019-04-05T12:33:36.321Z,9.50
2019-04-05T12:36:05.366Z,9.00
2019-04-05T12:38:34.077Z,10.53
2019-04-05T12:41:03.387Z,9.90
2019-04-05T12:43:32.192Z,9.30
2019-04-05T12:46:01.241Z,9.13
2019-04-05T12:48:29.780Z,10.20
2019-04-05T12:51:01.283Z,8.60
2019-04-05T12:53:28.615Z,10.70
2019-04-05T12:55:57.145Z,10.07
2019-04-05T12:58:26.581Z,11.00
2019-04-05T13:00:56.148Z,9.97
2019-04-05T13:03:25.534Z,9.57
2019-04-05T13:05:56.963Z,9.90
2019-04-05T13:08:24.234Z,10.00
2019-04-05T13:10:55.501Z,9.27
2019-04-05T13:13:26.446Z,8.00
2019-04-05T13:15:53.589Z,8.83
2019-04-05T13:18:24.875Z,10.40
2019-04-05T13:20:52.251Z,9.00
2019-04-05T13:23:21.220Z,9.87
2019-04-05T13:25:49.836Z,9.60
2019-04-05T13:28:19.063Z,9.23
2019-04-05T13:30:49.293Z,11.20
2019-04-05T13:33:18.186Z,7.73
2019-04-05T13:35:46.738Z,7.53
2019-04-05T13:38:15.192Z,8.67
2019-04-05T13:40:43.711Z,9.87
2019-04-05T13:43:12.176Z,9.10
2019-04-05T13:45:40.713Z,8.63
2019-04-05T13:48:09.736Z,8.43
2019-04-05T13:50:41.431Z,8.10
2019-04-05T13:53:11.114Z,9.67
2019-04-05T13:55:40.747Z,9.20
2019-04-05T13:58:11.157Z,9.23
2019-04-05T14:00:40.107Z,12.13
2019-04-05T14:03:08.592Z,9.43
2019-04-05T14:05:37.190Z,9.83
2019-04-05T14:08:10.190Z,9.13
2019-04-05T14:10:36.014Z,7.60
2019-04-05T14:13:04.461Z,9.10
2019-04-05T14:15:33.274Z,7.77
2019-04-05T14:18:01.811Z,7.57
2019-04-05T14:20:30.356Z,7.03
2019-04-05T14:22:58.893Z,8.97
2019-04-05T14:25:30.117Z,7.43
2019-04-05T14:27:57.758Z,8.23
2019-04-05T14:30:26.239Z,7.50
2019-04-05T14:32:55.747Z,8.30
2019-04-05T14:35:25.286Z,7.73
2019-04-05T14:37:54.603Z,8.20
2019-04-05T14:40:28.379Z,7.80
2019-04-05T14:42:55.357Z,8.23
2019-04-05T14:45:23.812Z,7.60
2019-04-05T14:47:52.295Z,8.07
2019-04-05T14:50:20.860Z,6.53
2019-04-05T14:52:49.738Z,8.30
2019-04-05T14:55:18.432Z,7.07
2019-04-05T14:57:46.893Z,7.40
2019-04-05T15:00:16.977Z,7.10
2019-04-05T15:02:45.894Z,6.63
2019-04-05T15:05:15.995Z,6.27
2019-04-05T15:07:44.527Z,6.37
2019-04-05T15:10:13.412Z,7.77
2019-04-05T15:12:41.854Z,7.20
2019-04-05T15:15:10.838Z,6.43
2019-04-05T15:17:48.059Z,8.40
2019-04-05T15:20:09.906Z,7.33
2019-04-05T15:22:41.352Z,7.17
2019-04-05T15:25:09.796Z,7.33
2019-04-05T15:27:38.314Z,6.60
2019-04-05T15:30:07.588Z,8.03
2019-04-05T15:32:37.219Z,6.63
2019-04-05T15:35:07.701Z,6.70
2019-04-05T15:37:37.634Z,7.60
2019-04-05T15:40:07.859Z,8.00
2019-04-05T15:42:36.391Z,6.83
2019-04-05T15:45:08.209Z,6.27
2019-04-05T15:47:36.800Z,6.27
2019-04-05T15:50:07.555Z,8.43
2019-04-05T15:52:36.282Z,7.10
2019-04-05T15:55:06.781Z,5.97
2019-04-05T15:57:35.305Z,6.27
2019-04-05T16:00:07.150Z,7.90
2019-04-05T16:02:35.633Z,8.23
2019-04-05T16:05:05.724Z,6.13
2019-04-05T16:07:34.184Z,6.67
2019-04-05T16:10:03.128Z,7.27
2019-04-05T16:12:31.582Z,6.63
2019-04-05T16:15:00.039Z,6.57
2019-04-05T16:17:28.526Z,6.23
2019-04-05T16:19:57.024Z,7.00
2019-04-05T16:22:31.254Z,6.43
2019-04-05T16:24:55.697Z,6.10
2019-04-05T16:27:24.165Z,7.07
2019-04-05T16:29:52.636Z,7.43
2019-04-05T16:32:21.134Z,8.43
2019-04-05T16:34:49.604Z,6.40
2019-04-05T16:37:18.060Z,6.40
2019-04-05T16:39:46.534Z,7.33
2019-04-05T16:42:15.032Z,7.73
2019-04-05T16:44:44.123Z,7.50
2019-04-05T16:47:12.668Z,7.50
2019-04-05T16:49:41.221Z,7.97
2019-04-05T16:52:09.749Z,7.70
2019-04-05T16:54:38.301Z,6.83
2019-04-05T16:57:06.765Z,7.17
2019-04-05T16:59:35.319Z,8.33
2019-04-05T17:02:04.459Z,7.20
2019-04-05T17:04:33.024Z,7.17
2019-04-05T17:07:01.492Z,6.77
2019-04-05T17:09:30.036Z,7.83
2019-04-05T17:11:58.683Z,9.00
2019-04-05T17:14:27.151Z,7.90
2019-04-05T17:16:55.631Z,9.47
2019-04-05T17:19:24.113Z,9.83
2019-04-05T17:21:52.593Z,9.40
2019-04-05T17:24:21.073Z,8.90
2019-04-05T17:26:49.554Z,10.47
2019-04-05T17:29:18.256Z,9.60
2019-04-05T17:31:46.900Z,10.00
2019-04-05T17:34:15.386Z,10.17
2019-04-05T17:36:43.897Z,9.93
2019-04-05T17:39:12.736Z,11.30
2019-04-05T17:41:41.323Z,12.17
2019-04-05T17:44:09.939Z,10.63
2019-04-05T17:46:38.776Z,11.93
2019-04-05T17:49:07.837Z,9.77
2019-04-05T17:51:36.585Z,11.10
2019-04-05T17:54:05.424Z,12.80
2019-04-05T17:56:33.974Z,10.77
2019-04-05T17:59:03.379Z,10.80
2019-04-05T18:01:31.979Z,10.23
2019-04-05T18:04:00.453Z,11.03
2019-04-05T18:06:28.935Z,11.17
2019-04-05T18:08:57.409Z,10.83
2019-04-05T18:11:25.881Z,10.77
2019-04-05T18:13:54.344Z,11.30
2019-04-05T18:16:22.908Z,11.30
2019-04-05T18:18:52.547Z,10.90
2019-04-05T18:21:21.022Z,10.87
2019-04-05T18:23:49.585Z,11.60
2019-04-05T18:26:18.164Z,11.30
2019-04-05T18:28:46.684Z,12.13
2019-04-05T18:31:15.182Z,13.13
2019-04-05T18:33:43.720Z,12.07
2019-04-05T18:36:12.226Z,16.33
2019-04-05T18:38:40.867Z,11.93
2019-04-05T18:41:09.371Z,13.03
2019-04-05T18:43:37.863Z,12.43
2019-04-05T18:46:06.460Z,14.63
2019-04-05T18:48:35.148Z,12.50
2019-04-05T18:51:03.684Z,14.60
2019-04-05T18:53:38.043Z,14.07
2019-04-05T18:56:02.478Z,13.00
2019-04-05T18:58:31.026Z,13.03
2019-04-05T19:00:59.490Z,12.80
2019-04-05T19:03:27.968Z,13.10
2019-04-05T19:05:56.450Z,16.03
2019-04-05T19:08:24.903Z,14.50
2019-04-05T19:10:53.411Z,14.97
2019-04-05T19:13:21.972Z,14.50
2019-04-05T19:15:50.504Z,15.20
2019-04-05T19:18:19.014Z,14.50
2019-04-05T19:20:47.526Z,14.60
2019-04-05T19:23:15.987Z,15.57
2019-04-05T19:25:46.608Z,15.57
2019-04-05T19:28:14.653Z,16.37
2019-04-05T19:48:30.925Z,17.90
2019-04-05T19:50:45.819Z,17.40
2019-04-05T19:53:14.279Z,18.10
2019-04-05T19:55:42.765Z,18.10
2019-04-05T19:58:11.307Z,16.63
2019-04-05T20:00:39.832Z,17.10
2019-04-05T20:03:08.322Z,19.37
2019-04-05T20:05:36.792Z,18.63
2019-04-05T20:08:05.312Z,18.50
2019-04-05T20:10:33.789Z,20.20
2019-04-05T20:13:02.267Z,19.97
2019-04-05T20:15:30.744Z,19.10
2019-04-05T20:17:59.219Z,17.57
2019-04-05T20:20:27.752Z,27.00
2019-04-05T20:22:56.308Z,20.53
2019-04-05T20:25:24.778Z,21.77
2019-04-05T20:27:53.891Z,19.63
2019-04-05T20:30:22.385Z,23.07
2019-04-05T20:32:50.855Z,22.23
2019-04-05T20:35:19.317Z,20.90
2019-04-05T20:37:47.877Z,20.53
2019-04-05T20:40:16.334Z,21.77
2019-04-05T20:42:44.813Z,20.97
2019-04-05T20:45:13.496Z,20.73
2019-04-05T20:47:41.984Z,20.60
2019-04-05T20:50:10.528Z,22.90
2019-04-05T20:52:38.984Z,20.70
2019-04-05T20:55:08.053Z,21.53
2019-04-05T20:57:36.537Z,22.70
2019-04-05T21:00:08.007Z,22.63
2019-04-05T21:02:36.473Z,27.37
2019-04-05T21:05:06.591Z,21.90
2019-04-05T21:07:35.094Z,22.43
2019-04-05T21:10:05.596Z,25.07
2019-04-05T21:12:34.088Z,23.77
2019-04-05T21:15:02.633Z,21.67
2019-04-05T21:17:31.098Z,24.93
2019-04-05T21:19:59.571Z,25.50
2019-04-05T21:22:28.049Z,23.33
2019-04-05T21:24:56.503Z,26.80
2019-04-05T21:27:25.828Z,22.17
2019-04-05T21:29:54.312Z,25.77
2019-04-05T21:32:22.818Z,24.83
2019-04-05T21:34:51.588Z,26.27
2019-04-05T21:37:20.052Z,24.37
2019-04-05T21:39:48.630Z,27.47
2019-04-05T21:42:17.193Z,26.10
2019-04-05T21:44:46.469Z,26.13
2019-04-05T21:47:15.112Z,29.57
2019-04-05T21:49:43.678Z,27.00
2019-04-05T21:52:12.247Z,26.57
2019-04-05T21:54:47.438Z,26.60
2019-04-05T21:57:11.021Z,25.90
2019-04-05T21:59:39.590Z,28.67
2019-04-05T22:02:08.149Z,29.57
2019-04-05T22:04:36.747Z,28.93
2019-04-05T22:07:05.449Z,26.77
2019-04-05T22:09:34.021Z,30.70
2019-04-05T22:12:02.571Z,29.93
2019-04-05T22:14:31.111Z,36.17
2019-04-05T22:16:59.663Z,35.83
2019-04-05T22:19:28.262Z,34.77
2019-04-05T22:21:56.831Z,37.30
2019-04-05T22:24:25.624Z,36.87
2019-04-05T22:26:54.186Z,34.87
2019-04-05T22:29:22.766Z,38.90
2019-04-05T22:31:51.331Z,36.43
2019-04-05T22:34:19.908Z,38.07
2019-04-05T22:36:48.496Z,39.27
2019-04-05T22:39:17.261Z,40.90
2019-04-05T22:41:45.831Z,39.97
2019-04-05T22:44:14.459Z,37.67
2019-04-05T22:46:42.996Z,42.93
2019-04-05T22:49:11.571Z,41.73
2019-04-05T22:51:40.163Z,45.73
2019-04-05T22:56:40.624Z,45.67
2019-04-05T22:59:09.204Z,39.93
2019-04-05T23:01:37.811Z,44.03
2019-04-05T23:04:06.384Z,41.90
2019-04-05T23:06:34.956Z,42.83
2019-04-05T23:09:05.854Z,38.83
2019-04-05T23:11:34.448Z,39.33
2019-04-05T23:14:03.093Z,39.83
2019-04-05T23:16:31.723Z,42.23
2019-04-05T23:19:00.335Z,44.67
2019-04-05T23:21:28.903Z,40.50
2019-04-05T23:23:57.557Z,46.43
2019-04-05T23:26:26.098Z,41.90
2019-04-05T23:28:54.663Z,45.30
2019-04-05T23:31:23.295Z,50.73
2019-04-05T23:33:51.886Z,39.53
2019-04-05T23:36:20.467Z,51.93
2019-04-05T23:38:49.042Z,43.97
2019-04-05T23:41:17.605Z,46.47
2019-04-05T23:43:46.170Z,41.00
2019-04-05T23:46:14.754Z,43.93
2019-04-05T23:48:43.454Z,42.70
2019-04-05T23:51:12.036Z,42.93
2019-04-05T23:53:40.596Z,46.23
2019-04-05T23:56:09.163Z,47.90
2019-04-05T23:58:37.752Z,44.47
